createdAt,value
2022-12-24T00:00:11.351Z,1.32
2022-12-24T00:02:38.233Z,1.32
2022-12-24T00:05:05.559Z,1.21
2022-12-24T00:07:32.238Z,1.43
2022-12-24T00:09:58.906Z,1.15
2022-12-24T00:12:25.540Z,1.25
2022-12-24T00:14:52.238Z,1.21
2022-12-24T00:17:18.909Z,1.04
2022-12-24T00:19:45.568Z,1.17
2022-12-24T00:22:12.220Z,1.04
2022-12-24T00:24:38.930Z,1.21
2022-12-24T00:27:05.584Z,1.07
2022-12-24T00:29:32.697Z,1.25
2022-12-24T00:31:59.449Z,0.98
2022-12-24T00:34:26.104Z,1.05
2022-12-24T00:36:52.750Z,0.96
2022-12-24T00:39:19.582Z,1.22
2022-12-24T00:41:46.278Z,1.25
2022-12-24T00:44:12.953Z,1.09
2022-12-24T00:46:40.582Z,1.07
2022-12-24T00:49:07.577Z,1.14
2022-12-24T00:51:35.122Z,1.08
2022-12-24T00:54:01.838Z,1.12
2022-12-24T00:56:28.510Z,1.09
2022-12-24T00:58:55.188Z,0.99
2022-12-24T01:01:22.327Z,0.98
2022-12-24T01:03:49.096Z,1.14
2022-12-24T01:06:17.500Z,1.18
2022-12-24T01:08:44.233Z,1.05
2022-12-24T01:11:11.005Z,1.21
2022-12-24T01:13:37.854Z,1.29
2022-12-24T01:16:11.994Z,1.25
2022-12-24T01:18:38.624Z,1.22
2022-12-24T01:21:05.344Z,1.51
2022-12-24T01:23:32.403Z,1.31
2022-12-24T01:26:02.491Z,1.36
2022-12-24T01:28:29.239Z,1.24
2022-12-24T01:30:55.910Z,1.41
2022-12-24T01:33:22.756Z,1.14
2022-12-24T01:35:49.419Z,1.12
2022-12-24T01:38:16.135Z,1.18
2022-12-24T01:40:42.776Z,1.34
2022-12-24T01:43:29.562Z,1.36
2022-12-24T01:45:56.766Z,1.24
2022-12-24T01:48:42.824Z,1.40
2022-12-24T01:51:35.893Z,1.35
2022-12-24T01:54:30.454Z,1.27
2022-12-24T01:57:05.339Z,1.26
2022-12-24T01:59:32.331Z,1.05
2022-12-24T02:01:59.156Z,1.05
2022-12-24T02:04:38.137Z,1.06
2022-12-24T02:07:04.983Z,1.07
2022-12-24T02:09:32.936Z,1.00
2022-12-24T02:12:03.017Z,1.09
2022-12-24T02:14:29.646Z,0.95
2022-12-24T02:17:05.539Z,1.00
2022-12-24T02:19:35.027Z,0.93
2022-12-24T02:22:08.199Z,1.07
2022-12-24T02:24:41.018Z,0.90
2022-12-24T02:27:21.555Z,0.98
2022-12-24T02:29:56.576Z,0.82
2022-12-24T02:32:24.636Z,0.93
2022-12-24T02:34:57.341Z,0.91
2022-12-24T02:37:54.946Z,0.86
2022-12-24T02:40:28.373Z,0.87
2022-12-24T02:42:58.453Z,0.83
2022-12-24T02:45:32.259Z,0.82
2022-12-24T02:47:58.923Z,0.78
2022-12-24T02:50:25.548Z,0.69
2022-12-24T02:52:52.159Z,0.77
2022-12-24T02:55:45.394Z,0.84
2022-12-24T02:58:29.852Z,0.70
2022-12-24T03:01:23.897Z,0.69
2022-12-24T03:04:03.203Z,0.74
2022-12-24T03:06:32.864Z,0.87
2022-12-24T03:09:25.222Z,0.67
2022-12-24T03:12:16.674Z,0.77
2022-12-24T03:14:43.316Z,0.65
2022-12-24T03:17:10.014Z,0.55
2022-12-24T03:19:36.731Z,0.52
2022-12-24T03:22:04.377Z,0.57
2022-12-24T03:24:31.061Z,0.52
2022-12-24T03:26:57.681Z,0.51
2022-12-24T03:29:24.338Z,0.61
2022-12-24T03:31:51.948Z,0.61
2022-12-24T03:34:19.021Z,0.47
2022-12-24T03:36:46.259Z,0.49
2022-12-24T03:39:12.879Z,0.40
2022-12-24T03:41:39.765Z,0.41
2022-12-24T03:44:06.417Z,0.34
2022-12-24T03:46:33.061Z,0.41
2022-12-24T03:48:59.742Z,0.36
2022-12-24T03:51:26.440Z,0.44
2022-12-24T03:53:53.353Z,0.50
2022-12-24T03:56:20.259Z,0.44
2022-12-24T03:58:46.919Z,0.45
2022-12-24T04:01:13.710Z,0.39
2022-12-24T04:03:40.468Z,0.34
2022-12-24T04:06:08.890Z,0.36
2022-12-24T04:08:35.865Z,0.40
2022-12-24T04:11:09.856Z,0.45
2022-12-24T04:13:36.853Z,0.39
2022-12-24T04:16:06.167Z,0.39
2022-12-24T04:18:32.875Z,0.48
2022-12-24T04:20:59.711Z,0.35
2022-12-24T04:23:26.428Z,0.37
2022-12-24T04:25:53.068Z,0.37
2022-12-24T04:28:19.708Z,0.39
2022-12-24T04:30:46.586Z,0.54
2022-12-24T04:33:13.283Z,0.32
2022-12-24T04:35:42.204Z,0.37
2022-12-24T04:38:09.303Z,0.36
2022-12-24T04:40:36.274Z,0.33
2022-12-24T04:43:02.902Z,0.30
2022-12-24T04:45:29.592Z,0.33
2022-12-24T04:47:56.269Z,0.33
2022-12-24T04:50:22.925Z,0.33
2022-12-24T04:52:50.128Z,0.44
2022-12-24T04:55:16.763Z,0.31
2022-12-24T04:57:46.189Z,0.28
2022-12-24T05:00:15.078Z,0.36
2022-12-24T05:02:41.824Z,0.41
2022-12-24T05:05:08.823Z,0.42
2022-12-24T05:07:35.476Z,0.34
2022-12-24T05:10:02.189Z,0.30
2022-12-24T05:12:28.824Z,0.27
2022-12-24T05:14:55.474Z,0.27
2022-12-24T05:17:22.680Z,0.23
2022-12-24T05:19:49.397Z,0.32
2022-12-24T05:22:16.064Z,0.20
2022-12-24T05:24:42.739Z,0.32
2022-12-24T05:27:09.395Z,0.35
2022-12-24T05:29:36.169Z,0.34
2022-12-24T05:32:02.783Z,0.25
2022-12-24T05:34:29.437Z,0.41
2022-12-24T05:36:56.317Z,0.38
2022-12-24T05:39:22.949Z,0.35
2022-12-24T05:41:49.579Z,0.29
2022-12-24T05:44:16.355Z,0.40
2022-12-24T05:46:43.711Z,0.26
2022-12-24T05:49:10.448Z,0.38
2022-12-24T05:51:37.162Z,0.33
2022-12-24T05:54:04.763Z,0.35
2022-12-24T05:56:31.433Z,0.37
2022-12-24T05:58:58.278Z,0.32
2022-12-24T06:01:25.009Z,0.46
2022-12-24T06:03:52.107Z,0.45
2022-12-24T06:06:21.075Z,0.38
2022-12-24T06:08:48.434Z,0.61
2022-12-24T06:11:16.794Z,0.88
2022-12-24T06:13:43.725Z,0.78
2022-12-24T06:16:15.284Z,0.66
2022-12-24T06:18:42.130Z,0.60
2022-12-24T06:21:08.935Z,0.69
2022-12-24T06:23:36.668Z,0.66
2022-12-24T06:26:03.453Z,0.64
2022-12-24T06:28:31.292Z,0.53
2022-12-24T06:31:02.583Z,0.66
2022-12-24T06:33:30.773Z,0.64
2022-12-24T06:35:57.401Z,0.71
2022-12-24T06:38:24.042Z,0.75
2022-12-24T06:40:50.715Z,0.71
2022-12-24T06:43:17.359Z,0.71
2022-12-24T06:45:47.285Z,0.76
2022-12-24T06:48:14.327Z,0.71
2022-12-24T06:50:41.031Z,0.76
2022-12-24T06:53:07.643Z,0.78
2022-12-24T06:55:34.818Z,0.82
2022-12-24T06:58:01.475Z,0.81
2022-12-24T07:00:28.195Z,0.95
2022-12-24T07:02:54.908Z,0.80
2022-12-24T07:05:21.561Z,0.87
2022-12-24T07:07:48.215Z,0.83
2022-12-24T07:10:16.322Z,0.92
2022-12-24T07:12:43.148Z,0.78
2022-12-24T07:15:10.354Z,0.81
2022-12-24T07:17:37.046Z,0.96
2022-12-24T07:20:04.658Z,1.00
2022-12-24T07:22:31.408Z,1.26
2022-12-24T07:24:58.027Z,1.37
2022-12-24T07:27:24.757Z,1.31
2022-12-24T07:29:51.411Z,1.49
2022-12-24T07:32:18.062Z,1.16
2022-12-24T07:34:45.059Z,1.03
2022-12-24T07:37:11.925Z,1.36
2022-12-24T07:39:38.945Z,1.46
2022-12-24T07:42:05.800Z,1.43
2022-12-24T07:44:32.442Z,1.45
2022-12-24T07:46:59.142Z,1.43
2022-12-24T07:49:26.092Z,1.35
2022-12-24T07:51:52.737Z,1.43
2022-12-24T07:54:19.709Z,1.36
2022-12-24T07:56:46.737Z,1.32
2022-12-24T07:59:13.474Z,1.18
2022-12-24T08:01:40.609Z,1.32
2022-12-24T08:04:07.443Z,1.12
2022-12-24T08:06:34.335Z,1.23
2022-12-24T08:09:00.991Z,1.45
2022-12-24T08:11:27.622Z,1.42
2022-12-24T08:13:54.284Z,1.68
2022-12-24T08:16:21.009Z,1.74
2022-12-24T08:18:47.675Z,1.43
2022-12-24T08:21:14.296Z,1.56
2022-12-24T08:23:41.237Z,1.30
2022-12-24T08:26:08.590Z,1.27
2022-12-24T08:28:35.213Z,1.11
2022-12-24T08:31:01.849Z,1.04
2022-12-24T08:33:28.465Z,1.05
2022-12-24T08:35:55.718Z,0.94
2022-12-24T08:38:22.441Z,1.09
2022-12-24T08:40:49.079Z,3.76
2022-12-24T08:43:18.939Z,2.29
2022-12-24T08:45:46.559Z,1.02
2022-12-24T08:48:13.262Z,1.19
2022-12-24T08:50:40.145Z,0.95
2022-12-24T08:53:07.053Z,1.08
2022-12-24T08:55:33.703Z,1.03
2022-12-24T08:58:00.512Z,1.10
2022-12-24T09:00:27.408Z,1.03
2022-12-24T09:02:54.132Z,1.10
2022-12-24T09:05:20.823Z,1.31
2022-12-24T09:07:47.486Z,1.21
2022-12-24T09:10:14.140Z,1.17
2022-12-24T09:12:40.769Z,3.32
2022-12-24T09:15:08.014Z,2.81
2022-12-24T09:17:35.788Z,3.07
2022-12-24T09:20:03.324Z,2.97
2022-12-24T09:22:29.944Z,2.35
2022-12-24T09:24:56.626Z,2.23
2022-12-24T09:27:23.254Z,2.43
2022-12-24T09:29:49.927Z,6.17
2022-12-24T09:32:16.828Z,5.13
2022-12-24T09:34:43.480Z,5.25
2022-12-24T09:37:10.127Z,5.12
2022-12-24T09:39:36.776Z,5.06
2022-12-24T09:42:26.354Z,4.63
2022-12-24T09:45:01.060Z,2.70
2022-12-24T09:47:32.306Z,2.52
2022-12-24T09:50:00.136Z,2.60
2022-12-24T09:52:35.713Z,3.34
2022-12-24T09:55:07.687Z,4.73
2022-12-24T09:57:37.858Z,4.63
2022-12-24T10:00:05.564Z,4.27
2022-12-24T10:02:32.355Z,4.48
2022-12-24T10:04:59.100Z,5.28
2022-12-24T10:07:37.460Z,4.66
2022-12-24T10:10:09.910Z,4.32
2022-12-24T10:12:47.712Z,4.42
2022-12-24T10:15:29.243Z,3.07
2022-12-24T10:18:08.071Z,2.25
2022-12-24T10:20:37.587Z,2.21
2022-12-24T10:23:06.440Z,1.78
2022-12-24T10:25:42.173Z,1.66
2022-12-24T10:28:17.451Z,1.57
2022-12-24T10:30:46.800Z,1.69
2022-12-24T10:33:18.055Z,1.89
2022-12-24T10:35:46.691Z,2.02
2022-12-24T10:38:13.319Z,1.63
2022-12-24T10:40:40.729Z,1.48
2022-12-24T10:43:18.171Z,1.50
2022-12-24T10:45:50.220Z,1.31
2022-12-24T10:48:27.295Z,1.41
2022-12-24T10:51:00.343Z,1.65
2022-12-24T10:53:37.055Z,1.52
2022-12-24T10:56:05.529Z,1.33
2022-12-24T10:58:32.188Z,1.38
2022-12-24T11:00:58.903Z,1.26
2022-12-24T11:03:35.417Z,1.58
2022-12-24T11:06:10.087Z,1.91
2022-12-24T11:08:38.216Z,1.52
2022-12-24T11:11:07.066Z,1.57
2022-12-24T11:13:58.248Z,1.83
2022-12-24T11:16:32.725Z,2.14
2022-12-24T11:19:04.341Z,1.47
2022-12-24T11:21:39.293Z,1.16
2022-12-24T11:24:11.922Z,1.98
2022-12-24T11:26:38.583Z,1.90
2022-12-24T11:29:05.053Z,1.42
2022-12-24T11:31:31.743Z,1.53
2022-12-24T11:33:58.463Z,1.91
2022-12-24T11:36:25.100Z,2.45
2022-12-24T11:38:57.912Z,2.23
2022-12-24T11:41:25.158Z,3.12
2022-12-24T11:43:52.524Z,2.90
2022-12-24T11:46:34.872Z,3.02
2022-12-24T11:49:17.465Z,1.67
2022-12-24T11:52:09.725Z,1.69
2022-12-24T11:55:37.940Z,1.33
2022-12-24T11:58:23.176Z,1.11
2022-12-24T12:00:50.828Z,0.88
2022-12-24T12:03:58.308Z,1.20
2022-12-24T12:06:39.001Z,0.80
2022-12-24T12:09:24.747Z,0.77
2022-12-24T12:12:14.591Z,0.96
2022-12-24T12:14:45.096Z,0.80
2022-12-24T12:17:30.305Z,0.72
2022-12-24T12:20:07.535Z,0.81
2022-12-24T12:23:01.433Z,0.75
2022-12-24T12:25:34.199Z,0.79
2022-12-24T12:28:00.993Z,0.88
2022-12-24T12:30:27.663Z,1.09
2022-12-24T12:32:57.466Z,1.06
2022-12-24T12:35:40.878Z,1.18
2022-12-24T12:38:25.363Z,1.32
2022-12-24T12:41:13.655Z,1.59
2022-12-24T12:44:02.895Z,1.44
2022-12-24T12:46:35.469Z,1.34
2022-12-24T12:49:25.000Z,1.16
2022-12-24T12:51:55.808Z,1.32
2022-12-24T12:54:32.530Z,1.23
2022-12-24T12:57:03.471Z,1.44
2022-12-24T12:59:32.151Z,1.28
2022-12-24T13:02:41.802Z,1.33
2022-12-24T13:05:20.200Z,1.41
2022-12-24T13:08:01.903Z,1.91
2022-12-24T13:10:41.443Z,2.00
2022-12-24T13:13:32.645Z,2.04
2022-12-24T13:16:38.033Z,1.94
2022-12-24T13:19:34.304Z,6.00
2022-12-24T13:22:04.408Z,6.41
2022-12-24T13:24:31.385Z,1.74
2022-12-24T13:27:18.127Z,1.36
2022-12-24T13:29:52.527Z,1.18
2022-12-24T13:32:22.084Z,1.47
2022-12-24T13:34:56.141Z,1.44
2022-12-24T13:37:23.721Z,1.50
2022-12-24T13:40:06.348Z,1.58
2022-12-24T13:43:01.062Z,1.55
2022-12-24T13:45:31.948Z,1.89
2022-12-24T13:48:08.265Z,4.70
2022-12-24T13:50:37.867Z,3.89
2022-12-24T13:53:05.486Z,2.95
2022-12-24T13:55:33.052Z,3.40
2022-12-24T13:58:01.724Z,3.54
2022-12-24T14:00:39.408Z,2.84
2022-12-24T14:03:08.023Z,2.51
2022-12-24T14:06:05.516Z,1.87
2022-12-24T14:08:35.333Z,2.10
2022-12-24T14:11:12.275Z,4.63
2022-12-24T14:13:38.948Z,3.65
2022-12-24T14:16:08.563Z,3.33
2022-12-24T14:18:38.538Z,2.02
2022-12-24T14:21:05.614Z,1.41
2022-12-24T14:23:56.040Z,1.44
2022-12-24T14:26:25.655Z,1.45
2022-12-24T14:29:08.297Z,1.64
2022-12-24T14:31:35.926Z,1.70
2022-12-24T14:34:12.191Z,1.70
2022-12-24T14:36:39.045Z,1.91
2022-12-24T14:39:09.082Z,1.99
2022-12-24T14:41:53.878Z,2.20
2022-12-24T14:44:49.553Z,2.48
2022-12-24T14:47:28.053Z,2.36
2022-12-24T14:50:32.648Z,2.65
2022-12-24T14:53:09.396Z,3.03
2022-12-24T14:55:50.826Z,2.79
2022-12-24T14:58:29.971Z,3.16
2022-12-24T15:01:02.336Z,2.80
2022-12-24T15:03:31.023Z,2.20
2022-12-24T15:06:05.206Z,2.04
2022-12-24T15:08:45.251Z,2.11
2022-12-24T15:11:17.121Z,2.04
2022-12-24T15:13:45.453Z,2.18
2022-12-24T15:16:13.657Z,2.08
2022-12-24T15:18:49.965Z,1.94
2022-12-24T15:21:20.591Z,1.93
2022-12-24T15:23:50.934Z,1.97
2022-12-24T15:26:30.096Z,1.76
2022-12-24T15:29:02.807Z,1.74
2022-12-24T15:31:32.218Z,1.82
2022-12-24T15:33:59.046Z,1.61
2022-12-24T15:36:35.819Z,1.87
2022-12-24T15:39:07.616Z,2.12
2022-12-24T15:41:41.764Z,1.92
2022-12-24T15:44:08.459Z,1.97
2022-12-24T15:46:35.168Z,1.99
2022-12-24T15:49:01.894Z,2.08
2022-12-24T15:51:33.933Z,2.16
2022-12-24T15:54:06.686Z,2.42
2022-12-24T15:56:44.333Z,3.01
2022-12-24T15:59:17.914Z,3.39
2022-12-24T16:01:44.811Z,3.55
2022-12-24T16:04:31.683Z,2.98
2022-12-24T16:06:59.498Z,2.69
2022-12-24T16:09:35.085Z,2.67
2022-12-24T16:12:04.497Z,2.51
2022-12-24T16:14:31.632Z,3.16
2022-12-24T16:16:58.285Z,4.46
2022-12-24T16:19:37.689Z,7.23
2022-12-24T16:24:53.642Z,6.18
2022-12-24T16:27:20.313Z,5.51
2022-12-24T16:29:49.686Z,6.68
2022-12-24T16:32:33.020Z,7.18
2022-12-24T16:35:01.707Z,7.28
2022-12-24T16:37:28.338Z,7.95
2022-12-24T16:39:54.988Z,7.13
2022-12-24T16:42:21.623Z,7.07
2022-12-24T16:44:48.330Z,8.24
2022-12-24T16:47:19.924Z,11.10
2022-12-24T16:49:46.628Z,10.25
2022-12-24T16:52:29.095Z,9.09
2022-12-24T16:54:56.303Z,8.37
2022-12-24T16:57:23.360Z,8.69
2022-12-24T16:59:50.162Z,8.93
2022-12-24T17:02:18.325Z,10.02
2022-12-24T17:04:45.098Z,9.44
2022-12-24T17:07:12.332Z,9.94
2022-12-24T17:09:38.988Z,11.77
2022-12-24T17:12:05.929Z,13.57
2022-12-24T17:14:32.627Z,13.66
2022-12-24T17:16:59.280Z,13.03
2022-12-24T17:19:25.997Z,14.39
2022-12-24T17:21:52.671Z,15.07
2022-12-24T17:24:19.381Z,15.78
2022-12-24T17:26:46.076Z,15.19
2022-12-24T17:29:12.805Z,15.45
2022-12-24T17:31:39.564Z,14.96
2022-12-24T17:34:06.405Z,14.68
2022-12-24T17:36:33.085Z,13.95
2022-12-24T17:38:59.748Z,14.60
2022-12-24T17:41:26.404Z,14.61
2022-12-24T17:43:53.055Z,15.33
2022-12-24T17:46:21.512Z,14.93
2022-12-24T17:48:48.537Z,12.47
2022-12-24T17:51:16.227Z,10.75
2022-12-24T17:53:42.962Z,11.33
2022-12-24T17:56:10.846Z,12.44
2022-12-24T17:58:37.594Z,12.87
2022-12-24T18:01:04.309Z,13.40
2022-12-24T18:03:31.039Z,13.20
2022-12-24T18:06:04.696Z,12.85
2022-12-24T18:08:31.321Z,12.90
2022-12-24T18:10:58.050Z,13.88
2022-12-24T18:13:24.745Z,16.21
2022-12-24T18:15:51.445Z,15.63
2022-12-24T18:18:18.164Z,15.65
2022-12-24T18:20:47.104Z,15.25
2022-12-24T18:23:13.956Z,17.58
2022-12-24T18:25:40.657Z,19.21
2022-12-24T18:28:07.301Z,21.03
2022-12-24T18:30:33.958Z,23.98
2022-12-24T18:33:00.805Z,21.09
2022-12-24T18:35:27.480Z,24.71
2022-12-24T18:37:54.132Z,23.50
2022-12-24T18:40:20.815Z,21.11
2022-12-24T18:42:47.525Z,21.05
2022-12-24T18:45:14.288Z,20.82
2022-12-24T18:47:41.021Z,20.15
2022-12-24T18:50:07.975Z,20.29
2022-12-24T18:52:35.381Z,20.00
2022-12-24T18:55:02.072Z,19.43
2022-12-24T18:57:28.722Z,20.14
2022-12-24T18:59:55.362Z,19.58
2022-12-24T19:02:22.119Z,19.75
2022-12-24T19:04:48.884Z,19.67
2022-12-24T19:07:15.538Z,20.04
2022-12-24T19:09:42.216Z,20.60
2022-12-24T19:12:09.009Z,20.65
2022-12-24T19:14:35.654Z,19.88
2022-12-24T19:17:02.300Z,18.84
2022-12-24T19:19:28.975Z,19.55
2022-12-24T19:21:55.673Z,19.54
2022-12-24T19:24:22.321Z,19.52
2022-12-24T19:26:48.994Z,18.17
2022-12-24T19:29:15.674Z,20.21
2022-12-24T19:31:42.358Z,19.22
2022-12-24T19:34:09.033Z,18.42
2022-12-24T19:36:35.691Z,15.47
2022-12-24T19:39:02.347Z,16.26
2022-12-24T19:41:29.304Z,15.85
2022-12-24T19:43:57.474Z,13.68
2022-12-24T19:46:26.179Z,12.12
2022-12-24T19:48:57.969Z,13.77
2022-12-24T19:51:24.919Z,12.02
2022-12-24T19:53:51.599Z,10.90
2022-12-24T19:56:19.168Z,10.56
2022-12-24T19:58:45.924Z,12.46
2022-12-24T20:01:17.152Z,13.80
2022-12-24T20:03:44.598Z,15.40
2022-12-24T20:06:11.714Z,15.49
2022-12-24T20:08:38.756Z,14.88
2022-12-24T20:11:06.255Z,12.06
2022-12-24T20:13:33.690Z,11.64
2022-12-24T20:16:04.671Z,10.48
2022-12-24T20:18:31.342Z,11.18
2022-12-24T20:21:01.749Z,11.25
2022-12-24T20:23:28.434Z,11.53
2022-12-24T20:26:01.318Z,12.24
2022-12-24T20:28:28.833Z,12.63
2022-12-24T20:30:58.136Z,14.25
2022-12-24T20:33:26.005Z,14.01
2022-12-24T20:35:53.606Z,13.60
2022-12-24T20:38:22.231Z,11.79
2022-12-24T20:40:50.887Z,13.35
2022-12-24T20:43:23.888Z,16.79
2022-12-24T20:45:56.175Z,19.10
2022-12-24T20:48:24.738Z,18.31
2022-12-24T20:50:52.360Z,17.34
2022-12-24T20:53:19.116Z,17.34
2022-12-24T20:55:46.583Z,16.56
2022-12-24T20:58:13.298Z,18.59
2022-12-24T21:00:39.954Z,17.62
2022-12-24T21:03:06.633Z,14.58
2022-12-24T21:05:33.281Z,12.00
2022-12-24T21:07:59.933Z,11.10
2022-12-24T21:10:32.297Z,10.80
2022-12-24T21:13:00.796Z,10.70
2022-12-24T21:15:35.354Z,12.52
2022-12-24T21:18:02.052Z,11.80
2022-12-24T21:20:28.717Z,11.41
2022-12-24T21:23:00.850Z,11.29
2022-12-24T21:25:28.146Z,10.48
2022-12-24T21:27:54.771Z,10.12
2022-12-24T21:30:21.456Z,10.76
2022-12-24T21:32:48.230Z,10.50
2022-12-24T21:35:14.912Z,10.90
2022-12-24T21:37:41.569Z,11.25
2022-12-24T21:40:08.801Z,12.00
2022-12-24T21:42:35.454Z,13.18
2022-12-24T21:45:02.423Z,12.36
2022-12-24T21:47:29.063Z,11.70
2022-12-24T21:49:55.695Z,12.99
2022-12-24T21:52:22.354Z,13.04
2022-12-24T21:54:49.005Z,12.30
2022-12-24T21:57:15.678Z,11.57
2022-12-24T21:59:42.319Z,11.89
2022-12-24T22:02:13.115Z,11.24
2022-12-24T22:04:39.905Z,13.27
2022-12-24T22:07:06.550Z,10.59
2022-12-24T22:09:33.229Z,9.67
2022-12-24T22:11:59.874Z,11.77
2022-12-24T22:14:26.542Z,11.06
2022-12-24T22:16:53.201Z,10.30
2022-12-24T22:19:19.850Z,11.85
2022-12-24T22:21:46.490Z,9.30
2022-12-24T22:24:13.150Z,8.69
2022-12-24T22:26:39.805Z,8.83
2022-12-24T22:29:06.470Z,9.04
2022-12-24T22:31:33.253Z,8.79
2022-12-24T22:34:00.171Z,9.38
2022-12-24T22:36:26.939Z,9.88
2022-12-24T22:38:53.598Z,9.21
2022-12-24T22:41:20.267Z,9.77
2022-12-24T22:43:46.961Z,10.13
2022-12-24T22:46:13.743Z,10.13
2022-12-24T22:48:40.837Z,9.48
2022-12-24T22:51:15.839Z,10.96
2022-12-24T22:53:42.535Z,9.66
2022-12-24T22:56:09.659Z,9.53
2022-12-24T22:58:36.334Z,9.78
2022-12-24T23:01:02.974Z,9.60
2022-12-24T23:03:29.751Z,10.47
2022-12-24T23:06:00.099Z,10.56
2022-12-24T23:08:26.874Z,10.65
2022-12-24T23:10:54.134Z,10.49
2022-12-24T23:13:20.888Z,10.32
2022-12-24T23:15:47.590Z,10.33
2022-12-24T23:18:14.297Z,11.07
2022-12-24T23:20:42.076Z,10.51
2022-12-24T23:23:09.121Z,10.95
2022-12-24T23:25:35.877Z,11.04
2022-12-24T23:28:02.538Z,11.12
2022-12-24T23:30:29.198Z,11.02
2022-12-24T23:32:55.864Z,11.29
2022-12-24T23:35:22.493Z,11.24
2022-12-24T23:37:49.140Z,11.74
2022-12-24T23:40:15.912Z,11.35
2022-12-24T23:42:42.542Z,12.61
2022-12-24T23:45:09.430Z,14.25
2022-12-24T23:47:36.100Z,14.27
2022-12-24T23:50:04.862Z,13.92
2022-12-24T23:52:31.573Z,14.60
2022-12-24T23:54:58.249Z,13.89
2022-12-24T23:57:24.926Z,13.55
2022-12-24T23:59:51.624Z,13.22
